Terminal Aerodrome Forecast
Issued by NWS

Home | Current Version | Previous Version | Text Only | Print | Product List | Glossary On
Versions: 1 2 3 4 5 6 7 8 9 10 11 12 13 14 15 16 17 18 19 20 21
564
FTUS43 KDTX 011736
TAFDET
TAF
KDET 011736Z 0118/0218 02008KT 4SM BR OVC006
     FM012200 02008KT P6SM OVC012
     FM020500 04006KT 2SM RA BR OVC006
     FM021000 03007KT 4SM -RA BR OVC004
     FM021200 03009KT 5SM BR OVC007
     FM021500 03009KT P6SM BKN015=

USA.gov is the U.S. government's official web portal to all federal, state and local government web resources and services.